<?xml version='1.0' encoding='utf-8'?>
<gpx xmlns="http://www.topografix.com/GPX/1/1" xmlns:xsi="http://www.w3.org/2001/XMLSchema-instance" version="1.1" creator="RunGap 1138 with Barometer" xsi:schemaLocation="http://www.topografix.com/GPX/1/1 http://www.topografix.com/GPX/1/1/gpx.xsd http://www.garmin.com/xmlschemas/GpxExtensions/v3 http://www.garmin.com/xmlschemas/GpxExtensionsv3.xsd http://www.garmin.com/xmlschemas/TrackPointExtension/v1 http://www.garmin.com/xmlschemas/TrackPointExtensionv1.xsd">
  <trk>
    <name>Vejers Strand</name>
    <type>Jogging</type>
    <trkseg>
      <trkpt lat="55.6260340" lon="8.1328440"><ele>5.3</ele>
        <time>2026-08-04T05:04:58Z</time>
      </trkpt><trkpt lat="55.6260950" lon="8.1325120"><ele>5.3</ele>
        <time>2026-08-04T05:05:06Z</time>
      </trkpt><trkpt lat="55.6262040" lon="8.1324780"><ele>5.3</ele>
        <time>2026-08-04T05:05:11Z</time>
      </trkpt><trkpt lat="55.6263060" lon="8.1325090"><ele>5.3</ele>
        <time>2026-08-04T05:05:16Z</time>
      </trkpt><trkpt lat="55.6265000" lon="8.1325860"><ele>5.3</ele>
        <time>2026-08-04T05:05:24Z</time>
      </trkpt><trkpt lat="55.6266020" lon="8.1325640"><ele>5.3</ele>
        <time>2026-08-04T05:05:28Z</time>
      </trkpt><trkpt lat="55.6266170" lon="8.1323750"><ele>5.3</ele>
        <time>2026-08-04T05:05:32Z</time>
      </trkpt><trkpt lat="55.6266840" lon="8.1320390"><ele>5.3</ele>
        <time>2026-08-04T05:05:42Z</time>
      </trkpt><trkpt lat="55.6267880" lon="8.1320170"><ele>5.3</ele>
        <time>2026-08-04T05:05:47Z</time>
      </trkpt><trkpt lat="55.6268840" lon="8.1320730"><ele>5.4</ele>
        <time>2026-08-04T05:05:51Z</time>
      </trkpt><trkpt lat="55.6270550" lon="8.1322400"><ele>5.4</ele>
        <time>2026-08-04T05:06:00Z</time>
      </trkpt><trkpt lat="55.6272250" lon="8.1324120"><ele>5.5</ele>
        <time>2026-08-04T05:06:09Z</time>
      </trkpt><trkpt lat="55.6274020" lon="8.1325680"><ele>5.5</ele>
        <time>2026-08-04T05:06:18Z</time>
      </trkpt><trkpt lat="55.6275020" lon="8.1326560"><ele>5.6</ele>
        <time>2026-08-04T05:06:23Z</time>
      </trkpt><trkpt lat="55.6276760" lon="8.1328070"><ele>5.6</ele>
        <time>2026-08-04T05:06:32Z</time>
      </trkpt><trkpt lat="55.6278520" lon="8.1329680"><ele>5.7</ele>
        <time>2026-08-04T05:06:41Z</time>
      </trkpt><trkpt lat="55.6280350" lon="8.1331490"><ele>5.7</ele>
        <time>2026-08-04T05:06:51Z</time>
      </trkpt><trkpt lat="55.6282020" lon="8.1333250"><ele>5.8</ele>
        <time>2026-08-04T05:07:00Z</time>
      </trkpt><trkpt lat="55.6283780" lon="8.1334880"><ele>5.9</ele>
        <time>2026-08-04T05:07:09Z</time>
      </trkpt><trkpt lat="55.6285500" lon="8.1336480"><ele>6.0</ele>
        <time>2026-08-04T05:07:18Z</time>
      </trkpt><trkpt lat="55.6287280" lon="8.1338380"><ele>6.1</ele>
        <time>2026-08-04T05:07:28Z</time>
      </trkpt><trkpt lat="55.6288190" lon="8.1339440"><ele>6.2</ele>
        <time>2026-08-04T05:07:33Z</time>
      </trkpt><trkpt lat="55.6289830" lon="8.1341860"><ele>6.3</ele>
        <time>2026-08-04T05:07:43Z</time>
      </trkpt><trkpt lat="55.6291300" lon="8.1344350"><ele>6.4</ele>
        <time>2026-08-04T05:07:53Z</time>
      </trkpt><trkpt lat="55.6292700" lon="8.1347140"><ele>6.5</ele>
        <time>2026-08-04T05:08:03Z</time>
      </trkpt><trkpt lat="55.6294090" lon="8.1349830"><ele>6.6</ele>
        <time>2026-08-04T05:08:13Z</time>
      </trkpt><trkpt lat="55.6295500" lon="8.1352620"><ele>6.7</ele>
        <time>2026-08-04T05:08:23Z</time>
      </trkpt><trkpt lat="55.6296260" lon="8.1354050"><ele>6.7</ele>
        <time>2026-08-04T05:08:28Z</time>
      </trkpt><trkpt lat="55.6297610" lon="8.1356760"><ele>6.7</ele>
        <time>2026-08-04T05:08:38Z</time>
      </trkpt><trkpt lat="55.6298450" lon="8.1358070"><ele>6.6</ele>
        <time>2026-08-04T05:08:43Z</time>
      </trkpt><trkpt lat="55.6299970" lon="8.1360530"><ele>6.6</ele>
        <time>2026-08-04T05:08:53Z</time>
      </trkpt><trkpt lat="55.6301560" lon="8.1363120"><ele>6.5</ele>
        <time>2026-08-04T05:09:03Z</time>
      </trkpt><trkpt lat="55.6303220" lon="8.1365610"><ele>6.5</ele>
        <time>2026-08-04T05:09:13Z</time>
      </trkpt><trkpt lat="55.6304170" lon="8.1366590"><ele>6.4</ele>
        <time>2026-08-04T05:09:18Z</time>
      </trkpt><trkpt lat="55.6306190" lon="8.1367270"><ele>6.4</ele>
        <time>2026-08-04T05:09:28Z</time>
      </trkpt><trkpt lat="55.6307210" lon="8.1366790"><ele>6.4</ele>
        <time>2026-08-04T05:09:33Z</time>
      </trkpt><trkpt lat="55.6309110" lon="8.1366010"><ele>6.3</ele>
        <time>2026-08-04T05:09:42Z</time>
      </trkpt><trkpt lat="55.6311120" lon="8.1364490"><ele>6.2</ele>
        <time>2026-08-04T05:09:52Z</time>
      </trkpt><trkpt lat="55.6312850" lon="8.1363000"><ele>6.1</ele>
        <time>2026-08-04T05:10:01Z</time>
      </trkpt><trkpt lat="55.6314660" lon="8.1361780"><ele>6.0</ele>
        <time>2026-08-04T05:10:10Z</time>
      </trkpt><trkpt lat="55.6316790" lon="8.1361060"><ele>5.8</ele>
        <time>2026-08-04T05:10:34Z</time>
      </trkpt><trkpt lat="55.6318860" lon="8.1360760"><ele>5.7</ele>
        <time>2026-08-04T05:10:44Z</time>
      </trkpt><trkpt lat="55.6320980" lon="8.1360730"><ele>5.5</ele>
        <time>2026-08-04T05:10:54Z</time>
      </trkpt><trkpt lat="55.6322890" lon="8.1360440"><ele>5.4</ele>
        <time>2026-08-04T05:11:03Z</time>
      </trkpt><trkpt lat="55.6323820" lon="8.1359380"><ele>5.3</ele>
        <time>2026-08-04T05:11:08Z</time>
      </trkpt><trkpt lat="55.6324450" lon="8.1358230"><ele>5.3</ele>
        <time>2026-08-04T05:11:12Z</time>
      </trkpt><trkpt lat="55.6325870" lon="8.1355290"><ele>5.1</ele>
        <time>2026-08-04T05:11:22Z</time>
      </trkpt><trkpt lat="55.6326580" lon="8.1353790"><ele>5.1</ele>
        <time>2026-08-04T05:11:27Z</time>
      </trkpt><trkpt lat="55.6328300" lon="8.1351700"><ele>5.1</ele>
        <time>2026-08-04T05:11:38Z</time>
      </trkpt><trkpt lat="55.6329160" lon="8.1351160"><ele>5.1</ele>
        <time>2026-08-04T05:11:43Z</time>
      </trkpt><trkpt lat="55.6331040" lon="8.1350340"><ele>5.2</ele>
        <time>2026-08-04T05:12:07Z</time>
      </trkpt><trkpt lat="55.6333010" lon="8.1349680"><ele>5.2</ele>
        <time>2026-08-04T05:12:18Z</time>
      </trkpt><trkpt lat="55.6333980" lon="8.1349770"><ele>5.2</ele>
        <time>2026-08-04T05:12:22Z</time>
      </trkpt><trkpt lat="55.6335800" lon="8.1350260"><ele>5.3</ele>
        <time>2026-08-04T05:12:29Z</time>
      </trkpt><trkpt lat="55.6336820" lon="8.1350980"><ele>5.3</ele>
        <time>2026-08-04T05:12:34Z</time>
      </trkpt><trkpt lat="55.6338530" lon="8.1352750"><ele>5.3</ele>
        <time>2026-08-04T05:12:43Z</time>
      </trkpt><trkpt lat="55.6339310" lon="8.1354120"><ele>5.3</ele>
        <time>2026-08-04T05:12:48Z</time>
      </trkpt><trkpt lat="55.6340410" lon="8.1356650"><ele>5.4</ele>
        <time>2026-08-04T05:12:56Z</time>
      </trkpt><trkpt lat="55.6341520" lon="8.1359650"><ele>5.4</ele>
        <time>2026-08-04T05:13:05Z</time>
      </trkpt><trkpt lat="55.6341990" lon="8.1361420"><ele>5.4</ele>
        <time>2026-08-04T05:13:10Z</time>
      </trkpt><trkpt lat="55.6342360" lon="8.1363250"><ele>5.4</ele>
        <time>2026-08-04T05:13:15Z</time>
      </trkpt><trkpt lat="55.6342860" lon="8.1366980"><ele>5.4</ele>
        <time>2026-08-04T05:13:25Z</time>
      </trkpt><trkpt lat="55.6342920" lon="8.1368980"><ele>5.5</ele>
        <time>2026-08-04T05:13:30Z</time>
      </trkpt><trkpt lat="55.6343720" lon="8.1370180"><ele>5.5</ele>
        <time>2026-08-04T05:13:35Z</time>
      </trkpt><trkpt lat="55.6345120" lon="8.1372500"><ele>5.5</ele>
        <time>2026-08-04T05:13:44Z</time>
      </trkpt><trkpt lat="55.6345540" lon="8.1373970"><ele>5.5</ele>
        <time>2026-08-04T05:13:48Z</time>
      </trkpt><trkpt lat="55.6346780" lon="8.1376310"><ele>5.5</ele>
        <time>2026-08-04T05:13:57Z</time>
      </trkpt><trkpt lat="55.6347680" lon="8.1376430"><ele>5.5</ele>
        <time>2026-08-04T05:14:01Z</time>
      </trkpt><trkpt lat="55.6348370" lon="8.1377560"><ele>5.5</ele>
        <time>2026-08-04T05:14:07Z</time>
      </trkpt><trkpt lat="55.6347660" lon="8.1379060"><ele>5.5</ele>
        <time>2026-08-04T05:14:16Z</time>
      </trkpt><trkpt lat="55.6347310" lon="8.1380750"><ele>5.5</ele>
        <time>2026-08-04T05:14:22Z</time>
      </trkpt><trkpt lat="55.6346470" lon="8.1384000"><ele>5.6</ele>
        <time>2026-08-04T05:14:30Z</time>
      </trkpt><trkpt lat="55.6345740" lon="8.1387540"><ele>5.6</ele>
        <time>2026-08-04T05:14:40Z</time>
      </trkpt><trkpt lat="55.6344860" lon="8.1390880"><ele>5.7</ele>
        <time>2026-08-04T05:14:50Z</time>
      </trkpt><trkpt lat="55.6344160" lon="8.1394200"><ele>5.7</ele>
        <time>2026-08-04T05:14:59Z</time>
      </trkpt><trkpt lat="55.6343400" lon="8.1397740"><ele>5.8</ele>
        <time>2026-08-04T05:15:09Z</time>
      </trkpt><trkpt lat="55.6342640" lon="8.1401080"><ele>5.9</ele>
        <time>2026-08-04T05:15:19Z</time>
      </trkpt><trkpt lat="55.6341680" lon="8.1404410"><ele>5.9</ele>
        <time>2026-08-04T05:15:29Z</time>
      </trkpt><trkpt lat="55.6340950" lon="8.1407820"><ele>6.0</ele>
        <time>2026-08-04T05:15:40Z</time>
      </trkpt><trkpt lat="55.6340230" lon="8.1410960"><ele>6.1</ele>
        <time>2026-08-04T05:15:49Z</time>
      </trkpt><trkpt lat="55.6340600" lon="8.1412600"><ele>6.1</ele>
        <time>2026-08-04T05:15:55Z</time>
      </trkpt><trkpt lat="55.6341490" lon="8.1413030"><ele>6.1</ele>
        <time>2026-08-04T05:16:01Z</time>
      </trkpt><trkpt lat="55.6343320" lon="8.1413610"><ele>6.3</ele>
        <time>2026-08-04T05:16:15Z</time>
      </trkpt><trkpt lat="55.6345330" lon="8.1414070"><ele>6.4</ele>
        <time>2026-08-04T05:16:29Z</time>
      </trkpt><trkpt lat="55.6347230" lon="8.1414830"><ele>6.5</ele>
        <time>2026-08-04T05:16:42Z</time>
      </trkpt><trkpt lat="55.6349070" lon="8.1415400"><ele>6.6</ele>
        <time>2026-08-04T05:16:55Z</time>
      </trkpt><trkpt lat="55.6350950" lon="8.1416100"><ele>6.8</ele>
        <time>2026-08-04T05:17:09Z</time>
      </trkpt><trkpt lat="55.6352810" lon="8.1416710"><ele>6.9</ele>
        <time>2026-08-04T05:17:22Z</time>
      </trkpt><trkpt lat="55.6354810" lon="8.1417400"><ele>7.0</ele>
        <time>2026-08-04T05:17:31Z</time>
      </trkpt><trkpt lat="55.6355900" lon="8.1417780"><ele>7.1</ele>
        <time>2026-08-04T05:17:36Z</time>
      </trkpt><trkpt lat="55.6357010" lon="8.1418130"><ele>7.2</ele>
        <time>2026-08-04T05:17:41Z</time>
      </trkpt><trkpt lat="55.6358860" lon="8.1418710"><ele>7.3</ele>
        <time>2026-08-04T05:17:49Z</time>
      </trkpt><trkpt lat="55.6360760" lon="8.1419350"><ele>7.4</ele>
        <time>2026-08-04T05:17:58Z</time>
      </trkpt><trkpt lat="55.6362870" lon="8.1420090"><ele>7.4</ele>
        <time>2026-08-04T05:18:08Z</time>
      </trkpt><trkpt lat="55.6363930" lon="8.1420510"><ele>7.4</ele>
        <time>2026-08-04T05:18:13Z</time>
      </trkpt><trkpt lat="55.6365950" lon="8.1421340"><ele>7.5</ele>
        <time>2026-08-04T05:18:22Z</time>
      </trkpt><trkpt lat="55.6367030" lon="8.1421720"><ele>7.5</ele>
        <time>2026-08-04T05:18:27Z</time>
      </trkpt><trkpt lat="55.6368680" lon="8.1423060"><ele>7.5</ele>
        <time>2026-08-04T05:18:37Z</time>
      </trkpt><trkpt lat="55.6370300" lon="8.1423040"><ele>7.6</ele>
        <time>2026-08-04T05:19:52Z</time>
      </trkpt><trkpt lat="55.6372070" lon="8.1423910"><ele>7.6</ele>
        <time>2026-08-04T05:20:04Z</time>
      </trkpt><trkpt lat="55.6373130" lon="8.1423990"><ele>7.6</ele>
        <time>2026-08-04T05:20:11Z</time>
      </trkpt><trkpt lat="55.6374990" lon="8.1424610"><ele>7.7</ele>
        <time>2026-08-04T05:20:20Z</time>
      </trkpt><trkpt lat="55.6376930" lon="8.1425380"><ele>7.7</ele>
        <time>2026-08-04T05:20:28Z</time>
      </trkpt><trkpt lat="55.6378960" lon="8.1426240"><ele>7.8</ele>
        <time>2026-08-04T05:20:37Z</time>
      </trkpt><trkpt lat="55.6380050" lon="8.1426570"><ele>7.9</ele>
        <time>2026-08-04T05:20:42Z</time>
      </trkpt><trkpt lat="55.6382030" lon="8.1427280"><ele>8.0</ele>
        <time>2026-08-04T05:20:51Z</time>
      </trkpt><trkpt lat="55.6383820" lon="8.1427970"><ele>8.1</ele>
        <time>2026-08-04T05:20:58Z</time>
      </trkpt><trkpt lat="55.6384880" lon="8.1428400"><ele>8.1</ele>
        <time>2026-08-04T05:21:03Z</time>
      </trkpt><trkpt lat="55.6385970" lon="8.1428750"><ele>8.2</ele>
        <time>2026-08-04T05:21:08Z</time>
      </trkpt><trkpt lat="55.6387030" lon="8.1429240"><ele>8.3</ele>
        <time>2026-08-04T05:21:13Z</time>
      </trkpt><trkpt lat="55.6388890" lon="8.1430070"><ele>8.4</ele>
        <time>2026-08-04T05:21:22Z</time>
      </trkpt><trkpt lat="55.6390880" lon="8.1430720"><ele>8.5</ele>
        <time>2026-08-04T05:21:39Z</time>
      </trkpt><trkpt lat="55.6392720" lon="8.1431290"><ele>8.6</ele>
        <time>2026-08-04T05:21:48Z</time>
      </trkpt><trkpt lat="55.6394630" lon="8.1432070"><ele>8.6</ele>
        <time>2026-08-04T05:21:57Z</time>
      </trkpt><trkpt lat="55.6396490" lon="8.1432780"><ele>8.6</ele>
        <time>2026-08-04T05:22:08Z</time>
      </trkpt><trkpt lat="55.6398490" lon="8.1433430"><ele>8.6</ele>
        <time>2026-08-04T05:22:22Z</time>
      </trkpt><trkpt lat="55.6400350" lon="8.1434110"><ele>8.6</ele>
        <time>2026-08-04T05:22:34Z</time>
      </trkpt><trkpt lat="55.6402390" lon="8.1434930"><ele>8.6</ele>
        <time>2026-08-04T05:22:43Z</time>
      </trkpt><trkpt lat="55.6404240" lon="8.1435650"><ele>8.5</ele>
        <time>2026-08-04T05:22:51Z</time>
      </trkpt><trkpt lat="55.6405340" lon="8.1436000"><ele>8.5</ele>
        <time>2026-08-04T05:22:55Z</time>
      </trkpt><trkpt lat="55.6407140" lon="8.1436500"><ele>8.5</ele>
        <time>2026-08-04T05:23:03Z</time>
      </trkpt><trkpt lat="55.6408960" lon="8.1437240"><ele>8.5</ele>
        <time>2026-08-04T05:23:11Z</time>
      </trkpt><trkpt lat="55.6410060" lon="8.1437600"><ele>8.5</ele>
        <time>2026-08-04T05:23:16Z</time>
      </trkpt><trkpt lat="55.6412110" lon="8.1438560"><ele>8.4</ele>
        <time>2026-08-04T05:23:26Z</time>
      </trkpt><trkpt lat="55.6414100" lon="8.1439160"><ele>8.4</ele>
        <time>2026-08-04T05:23:35Z</time>
      </trkpt><trkpt lat="55.6415190" lon="8.1439530"><ele>8.4</ele>
        <time>2026-08-04T05:23:40Z</time>
      </trkpt><trkpt lat="55.6417170" lon="8.1440380"><ele>8.3</ele>
        <time>2026-08-04T05:23:50Z</time>
      </trkpt><trkpt lat="55.6419060" lon="8.1441070"><ele>8.3</ele>
        <time>2026-08-04T05:24:04Z</time>
      </trkpt><trkpt lat="55.6421230" lon="8.1441890"><ele>8.2</ele>
        <time>2026-08-04T05:24:14Z</time>
      </trkpt><trkpt lat="55.6422300" lon="8.1442260"><ele>8.2</ele>
        <time>2026-08-04T05:24:18Z</time>
      </trkpt><trkpt lat="55.6424370" lon="8.1442630"><ele>8.2</ele>
        <time>2026-08-04T05:24:27Z</time>
      </trkpt><trkpt lat="55.6426240" lon="8.1443530"><ele>8.1</ele>
        <time>2026-08-04T05:24:37Z</time>
      </trkpt><trkpt lat="55.6428200" lon="8.1444240"><ele>8.1</ele>
        <time>2026-08-04T05:24:51Z</time>
      </trkpt><trkpt lat="55.6429990" lon="8.1445150"><ele>8.1</ele>
        <time>2026-08-04T05:25:04Z</time>
      </trkpt><trkpt lat="55.6430980" lon="8.1445050"><ele>8.1</ele>
        <time>2026-08-04T05:25:10Z</time>
      </trkpt><trkpt lat="55.6432950" lon="8.1445510"><ele>8.3</ele>
        <time>2026-08-04T05:25:19Z</time>
      </trkpt><trkpt lat="55.6433800" lon="8.1446110"><ele>8.3</ele>
        <time>2026-08-04T05:25:23Z</time>
      </trkpt><trkpt lat="55.6435790" lon="8.1446800"><ele>8.4</ele>
        <time>2026-08-04T05:25:32Z</time>
      </trkpt><trkpt lat="55.6436880" lon="8.1447340"><ele>8.5</ele>
        <time>2026-08-04T05:25:37Z</time>
      </trkpt><trkpt lat="55.6438640" lon="8.1448300"><ele>8.6</ele>
        <time>2026-08-04T05:25:45Z</time>
      </trkpt><trkpt lat="55.6439750" lon="8.1448440"><ele>8.6</ele>
        <time>2026-08-04T05:25:50Z</time>
      </trkpt><trkpt lat="55.6441660" lon="8.1449200"><ele>8.8</ele>
        <time>2026-08-04T05:25:58Z</time>
      </trkpt><trkpt lat="55.6443580" lon="8.1450410"><ele>8.9</ele>
        <time>2026-08-04T05:26:07Z</time>
      </trkpt><trkpt lat="55.6444580" lon="8.1451400"><ele>8.9</ele>
        <time>2026-08-04T05:26:12Z</time>
      </trkpt><trkpt lat="55.6445570" lon="8.1452290"><ele>9.0</ele>
        <time>2026-08-04T05:26:17Z</time>
      </trkpt><trkpt lat="55.6447180" lon="8.1454420"><ele>9.0</ele>
        <time>2026-08-04T05:26:26Z</time>
      </trkpt><trkpt lat="55.6448890" lon="8.1456700"><ele>8.8</ele>
        <time>2026-08-04T05:26:36Z</time>
      </trkpt><trkpt lat="55.6449840" lon="8.1457780"><ele>8.7</ele>
        <time>2026-08-04T05:26:41Z</time>
      </trkpt><trkpt lat="55.6451430" lon="8.1459810"><ele>8.6</ele>
        <time>2026-08-04T05:26:50Z</time>
      </trkpt><trkpt lat="55.6453180" lon="8.1461740"><ele>8.4</ele>
        <time>2026-08-04T05:26:59Z</time>
      </trkpt><trkpt lat="55.6454920" lon="8.1463770"><ele>8.3</ele>
        <time>2026-08-04T05:27:09Z</time>
      </trkpt><trkpt lat="55.6456840" lon="8.1464850"><ele>8.1</ele>
        <time>2026-08-04T05:27:18Z</time>
      </trkpt><trkpt lat="55.6458680" lon="8.1465890"><ele>8.0</ele>
        <time>2026-08-04T05:27:32Z</time>
      </trkpt><trkpt lat="55.6459380" lon="8.1466940"><ele>7.9</ele>
        <time>2026-08-04T05:27:42Z</time>
      </trkpt><trkpt lat="55.6458710" lon="8.1465640"><ele>7.9</ele>
        <time>2026-08-04T05:29:30Z</time>
      </trkpt><trkpt lat="55.6457720" lon="8.1464460"><ele>7.8</ele>
        <time>2026-08-04T05:29:35Z</time>
      </trkpt><trkpt lat="55.6457400" lon="8.1462680"><ele>7.7</ele>
        <time>2026-08-04T05:29:40Z</time>
      </trkpt><trkpt lat="55.6457510" lon="8.1460900"><ele>7.7</ele>
        <time>2026-08-04T05:29:44Z</time>
      </trkpt><trkpt lat="55.6457980" lon="8.1457340"><ele>7.6</ele>
        <time>2026-08-04T05:29:56Z</time>
      </trkpt><trkpt lat="55.6458150" lon="8.1454010"><ele>7.6</ele>
        <time>2026-08-04T05:30:08Z</time>
      </trkpt><trkpt lat="55.6458140" lon="8.1450290"><ele>7.5</ele>
        <time>2026-08-04T05:30:22Z</time>
      </trkpt><trkpt lat="55.6457800" lon="8.1446950"><ele>7.4</ele>
        <time>2026-08-04T05:30:31Z</time>
      </trkpt><trkpt lat="55.6457630" lon="8.1444960"><ele>7.4</ele>
        <time>2026-08-04T05:30:35Z</time>
      </trkpt><trkpt lat="55.6457130" lon="8.1441630"><ele>7.3</ele>
        <time>2026-08-04T05:30:43Z</time>
      </trkpt><trkpt lat="55.6456860" lon="8.1439690"><ele>7.3</ele>
        <time>2026-08-04T05:30:48Z</time>
      </trkpt><trkpt lat="55.6456610" lon="8.1437800"><ele>7.2</ele>
        <time>2026-08-04T05:30:53Z</time>
      </trkpt><trkpt lat="55.6456240" lon="8.1435930"><ele>7.2</ele>
        <time>2026-08-04T05:30:58Z</time>
      </trkpt><trkpt lat="55.6456140" lon="8.1434140"><ele>7.2</ele>
        <time>2026-08-04T05:31:02Z</time>
      </trkpt><trkpt lat="55.6455620" lon="8.1430780"><ele>7.1</ele>
        <time>2026-08-04T05:31:11Z</time>
      </trkpt><trkpt lat="55.6455420" lon="8.1427230"><ele>7.1</ele>
        <time>2026-08-04T05:31:23Z</time>
      </trkpt><trkpt lat="55.6455730" lon="8.1423630"><ele>7.1</ele>
        <time>2026-08-04T05:31:37Z</time>
      </trkpt><trkpt lat="55.6456110" lon="8.1419940"><ele>7.1</ele>
        <time>2026-08-04T05:31:46Z</time>
      </trkpt><trkpt lat="55.6456620" lon="8.1416610"><ele>7.1</ele>
        <time>2026-08-04T05:31:54Z</time>
      </trkpt><trkpt lat="55.6456750" lon="8.1414660"><ele>7.1</ele>
        <time>2026-08-04T05:31:59Z</time>
      </trkpt><trkpt lat="55.6456960" lon="8.1412700"><ele>7.1</ele>
        <time>2026-08-04T05:32:04Z</time>
      </trkpt><trkpt lat="55.6457380" lon="8.1408950"><ele>7.1</ele>
        <time>2026-08-04T05:32:14Z</time>
      </trkpt><trkpt lat="55.6457950" lon="8.1405410"><ele>7.1</ele>
        <time>2026-08-04T05:32:24Z</time>
      </trkpt><trkpt lat="55.6458250" lon="8.1403560"><ele>7.1</ele>
        <time>2026-08-04T05:32:29Z</time>
      </trkpt><trkpt lat="55.6458670" lon="8.1401730"><ele>7.1</ele>
        <time>2026-08-04T05:32:34Z</time>
      </trkpt><trkpt lat="55.6459060" lon="8.1399820"><ele>7.1</ele>
        <time>2026-08-04T05:32:39Z</time>
      </trkpt><trkpt lat="55.6459990" lon="8.1396570"><ele>7.0</ele>
        <time>2026-08-04T05:32:48Z</time>
      </trkpt><trkpt lat="55.6460670" lon="8.1393360"><ele>6.9</ele>
        <time>2026-08-04T05:33:02Z</time>
      </trkpt><trkpt lat="55.6461520" lon="8.1390480"><ele>6.9</ele>
        <time>2026-08-04T05:33:15Z</time>
      </trkpt><trkpt lat="55.6462440" lon="8.1387430"><ele>6.8</ele>
        <time>2026-08-04T05:33:28Z</time>
      </trkpt><trkpt lat="55.6463280" lon="8.1386850"><ele>6.8</ele>
        <time>2026-08-04T05:33:35Z</time>
      </trkpt><trkpt lat="55.6464730" lon="8.1384830"><ele>6.7</ele>
        <time>2026-08-04T05:33:50Z</time>
      </trkpt><trkpt lat="55.6465730" lon="8.1381910"><ele>6.6</ele>
        <time>2026-08-04T05:34:06Z</time>
      </trkpt><trkpt lat="55.6466610" lon="8.1380880"><ele>6.6</ele>
        <time>2026-08-04T05:34:13Z</time>
      </trkpt><trkpt lat="55.6467990" lon="8.1378550"><ele>6.5</ele>
        <time>2026-08-04T05:34:21Z</time>
      </trkpt><trkpt lat="55.6469410" lon="8.1376020"><ele>6.6</ele>
        <time>2026-08-04T05:34:30Z</time>
      </trkpt><trkpt lat="55.6470290" lon="8.1374820"><ele>6.7</ele>
        <time>2026-08-04T05:34:35Z</time>
      </trkpt><trkpt lat="55.6471830" lon="8.1372350"><ele>7.0</ele>
        <time>2026-08-04T05:34:44Z</time>
      </trkpt><trkpt lat="55.6473190" lon="8.1369910"><ele>7.3</ele>
        <time>2026-08-04T05:34:56Z</time>
      </trkpt><trkpt lat="55.6474560" lon="8.1367580"><ele>7.6</ele>
        <time>2026-08-04T05:35:10Z</time>
      </trkpt><trkpt lat="55.6475920" lon="8.1365160"><ele>7.8</ele>
        <time>2026-08-04T05:35:23Z</time>
      </trkpt><trkpt lat="55.6477600" lon="8.1362950"><ele>8.1</ele>
        <time>2026-08-04T05:35:36Z</time>
      </trkpt><trkpt lat="55.6478400" lon="8.1361520"><ele>8.3</ele>
        <time>2026-08-04T05:35:41Z</time>
      </trkpt><trkpt lat="55.6479120" lon="8.1359930"><ele>8.5</ele>
        <time>2026-08-04T05:35:45Z</time>
      </trkpt><trkpt lat="55.6479970" lon="8.1356950"><ele>8.7</ele>
        <time>2026-08-04T05:35:53Z</time>
      </trkpt><trkpt lat="55.6480680" lon="8.1353620"><ele>9.0</ele>
        <time>2026-08-04T05:36:03Z</time>
      </trkpt><trkpt lat="55.6480880" lon="8.1350540"><ele>9.2</ele>
        <time>2026-08-04T05:36:16Z</time>
      </trkpt><trkpt lat="55.6481340" lon="8.1347500"><ele>9.4</ele>
        <time>2026-08-04T05:36:30Z</time>
      </trkpt><trkpt lat="55.6482090" lon="8.1344330"><ele>9.5</ele>
        <time>2026-08-04T05:36:42Z</time>
      </trkpt><trkpt lat="55.6483300" lon="8.1341250"><ele>9.7</ele>
        <time>2026-08-04T05:36:52Z</time>
      </trkpt><trkpt lat="55.6483900" lon="8.1339630"><ele>9.8</ele>
        <time>2026-08-04T05:36:57Z</time>
      </trkpt><trkpt lat="55.6484880" lon="8.1336390"><ele>10.0</ele>
        <time>2026-08-04T05:37:10Z</time>
      </trkpt><trkpt lat="55.6484930" lon="8.1334730"><ele>10.1</ele>
        <time>2026-08-04T05:37:18Z</time>
      </trkpt><trkpt lat="55.6485570" lon="8.1333070"><ele>10.2</ele>
        <time>2026-08-04T05:37:23Z</time>
      </trkpt><trkpt lat="55.6486410" lon="8.1329940"><ele>10.4</ele>
        <time>2026-08-04T05:37:32Z</time>
      </trkpt><trkpt lat="55.6487300" lon="8.1326850"><ele>10.6</ele>
        <time>2026-08-04T05:37:40Z</time>
      </trkpt><trkpt lat="55.6488240" lon="8.1326030"><ele>10.7</ele>
        <time>2026-08-04T05:37:44Z</time>
      </trkpt><trkpt lat="55.6488840" lon="8.1324680"><ele>10.4</ele>
        <time>2026-08-04T05:37:48Z</time>
      </trkpt><trkpt lat="55.6489390" lon="8.1322970"><ele>10.0</ele>
        <time>2026-08-04T05:37:53Z</time>
      </trkpt><trkpt lat="55.6489980" lon="8.1319610"><ele>9.3</ele>
        <time>2026-08-04T05:38:07Z</time>
      </trkpt><trkpt lat="55.6491120" lon="8.1316950"><ele>8.6</ele>
        <time>2026-08-04T05:38:25Z</time>
      </trkpt><trkpt lat="55.6492120" lon="8.1314150"><ele>7.9</ele>
        <time>2026-08-04T05:38:47Z</time>
      </trkpt><trkpt lat="55.6493330" lon="8.1311780"><ele>7.2</ele>
        <time>2026-08-04T05:39:59Z</time>
      </trkpt><trkpt lat="55.6494460" lon="8.1309130"><ele>6.5</ele>
        <time>2026-08-04T05:40:17Z</time>
      </trkpt><trkpt lat="55.6493650" lon="8.1308210"><ele>6.2</ele>
        <time>2026-08-04T05:40:32Z</time>
      </trkpt><trkpt lat="55.6492820" lon="8.1306860"><ele>5.8</ele>
        <time>2026-08-04T05:41:44Z</time>
      </trkpt><trkpt lat="55.6492460" lon="8.1304990"><ele>5.4</ele>
        <time>2026-08-04T05:41:50Z</time>
      </trkpt><trkpt lat="55.6492370" lon="8.1303150"><ele>5.0</ele>
        <time>2026-08-04T05:41:54Z</time>
      </trkpt><trkpt lat="55.6492000" lon="8.1299830"><ele>4.3</ele>
        <time>2026-08-04T05:42:02Z</time>
      </trkpt><trkpt lat="55.6491160" lon="8.1296200"><ele>4.0</ele>
        <time>2026-08-04T05:42:12Z</time>
      </trkpt><trkpt lat="55.6490150" lon="8.1292960"><ele>3.7</ele>
        <time>2026-08-04T05:42:21Z</time>
      </trkpt><trkpt lat="55.6489180" lon="8.1289920"><ele>3.5</ele>
        <time>2026-08-04T05:42:35Z</time>
      </trkpt><trkpt lat="55.6487990" lon="8.1287050"><ele>3.2</ele>
        <time>2026-08-04T05:42:45Z</time>
      </trkpt><trkpt lat="55.6487120" lon="8.1286060"><ele>3.1</ele>
        <time>2026-08-04T05:42:50Z</time>
      </trkpt><trkpt lat="55.6485550" lon="8.1283670"><ele>2.8</ele>
        <time>2026-08-04T05:42:59Z</time>
      </trkpt><trkpt lat="55.6483740" lon="8.1282170"><ele>2.5</ele>
        <time>2026-08-04T05:43:08Z</time>
      </trkpt><trkpt lat="55.6481760" lon="8.1281040"><ele>2.3</ele>
        <time>2026-08-04T05:43:18Z</time>
      </trkpt><trkpt lat="55.6479770" lon="8.1280000"><ele>2.0</ele>
        <time>2026-08-04T05:43:28Z</time>
      </trkpt><trkpt lat="55.6477820" lon="8.1278880"><ele>2.0</ele>
        <time>2026-08-04T05:43:40Z</time>
      </trkpt><trkpt lat="55.6475900" lon="8.1277840"><ele>2.0</ele>
        <time>2026-08-04T05:43:54Z</time>
      </trkpt><trkpt lat="55.6474020" lon="8.1276580"><ele>2.1</ele>
        <time>2026-08-04T05:44:08Z</time>
      </trkpt><trkpt lat="55.6472220" lon="8.1275300"><ele>2.1</ele>
        <time>2026-08-04T05:44:22Z</time>
      </trkpt><trkpt lat="55.6470360" lon="8.1274070"><ele>2.2</ele>
        <time>2026-08-04T05:44:35Z</time>
      </trkpt><trkpt lat="55.6468440" lon="8.1272830"><ele>2.2</ele>
        <time>2026-08-04T05:44:45Z</time>
      </trkpt><trkpt lat="55.6467540" lon="8.1272690"><ele>2.2</ele>
        <time>2026-08-04T05:44:48Z</time>
      </trkpt><trkpt lat="55.6466420" lon="8.1272940"><ele>2.2</ele>
        <time>2026-08-04T05:44:53Z</time>
      </trkpt><trkpt lat="55.6465430" lon="8.1272410"><ele>2.3</ele>
        <time>2026-08-04T05:44:58Z</time>
      </trkpt><trkpt lat="55.6463710" lon="8.1271320"><ele>2.3</ele>
        <time>2026-08-04T05:45:10Z</time>
      </trkpt><trkpt lat="55.6461910" lon="8.1270330"><ele>2.3</ele>
        <time>2026-08-04T05:45:20Z</time>
      </trkpt><trkpt lat="55.6460810" lon="8.1269740"><ele>2.3</ele>
        <time>2026-08-04T05:45:25Z</time>
      </trkpt><trkpt lat="55.6459120" lon="8.1268580"><ele>2.3</ele>
        <time>2026-08-04T05:45:35Z</time>
      </trkpt><trkpt lat="55.6457290" lon="8.1267180"><ele>2.2</ele>
        <time>2026-08-04T05:45:50Z</time>
      </trkpt><trkpt lat="55.6456340" lon="8.1266850"><ele>2.2</ele>
        <time>2026-08-04T05:45:57Z</time>
      </trkpt><trkpt lat="55.6455440" lon="8.1266110"><ele>2.2</ele>
        <time>2026-08-04T05:46:04Z</time>
      </trkpt><trkpt lat="55.6453580" lon="8.1265260"><ele>2.1</ele>
        <time>2026-08-04T05:46:18Z</time>
      </trkpt><trkpt lat="55.6451820" lon="8.1264060"><ele>2.1</ele>
        <time>2026-08-04T05:46:31Z</time>
      </trkpt><trkpt lat="55.6449970" lon="8.1263080"><ele>2.0</ele>
        <time>2026-08-04T05:46:40Z</time>
      </trkpt><trkpt lat="55.6448220" lon="8.1262170"><ele>2.0</ele>
        <time>2026-08-04T05:46:48Z</time>
      </trkpt><trkpt lat="55.6446190" lon="8.1261080"><ele>1.9</ele>
        <time>2026-08-04T05:46:58Z</time>
      </trkpt><trkpt lat="55.6445180" lon="8.1260320"><ele>1.9</ele>
        <time>2026-08-04T05:47:03Z</time>
      </trkpt><trkpt lat="55.6443280" lon="8.1259090"><ele>1.9</ele>
        <time>2026-08-04T05:47:13Z</time>
      </trkpt><trkpt lat="55.6442220" lon="8.1258410"><ele>1.9</ele>
        <time>2026-08-04T05:47:18Z</time>
      </trkpt><trkpt lat="55.6440440" lon="8.1257510"><ele>1.9</ele>
        <time>2026-08-04T05:47:27Z</time>
      </trkpt><trkpt lat="55.6438550" lon="8.1256430"><ele>1.9</ele>
        <time>2026-08-04T05:47:41Z</time>
      </trkpt><trkpt lat="55.6436610" lon="8.1255350"><ele>1.9</ele>
        <time>2026-08-04T05:47:55Z</time>
      </trkpt><trkpt lat="55.6434760" lon="8.1254190"><ele>1.9</ele>
        <time>2026-08-04T05:48:08Z</time>
      </trkpt><trkpt lat="55.6433000" lon="8.1252920"><ele>1.9</ele>
        <time>2026-08-04T05:48:20Z</time>
      </trkpt><trkpt lat="55.6431310" lon="8.1251730"><ele>1.9</ele>
        <time>2026-08-04T05:48:28Z</time>
      </trkpt><trkpt lat="55.6429480" lon="8.1250470"><ele>2.0</ele>
        <time>2026-08-04T05:48:35Z</time>
      </trkpt><trkpt lat="55.6427770" lon="8.1248860"><ele>2.0</ele>
        <time>2026-08-04T05:48:46Z</time>
      </trkpt><trkpt lat="55.6425980" lon="8.1247490"><ele>2.0</ele>
        <time>2026-08-04T05:49:00Z</time>
      </trkpt><trkpt lat="55.6424020" lon="8.1246420"><ele>2.0</ele>
        <time>2026-08-04T05:49:11Z</time>
      </trkpt><trkpt lat="55.6422200" lon="8.1245110"><ele>2.0</ele>
        <time>2026-08-04T05:49:23Z</time>
      </trkpt><trkpt lat="55.6419910" lon="8.1243760"><ele>2.0</ele>
        <time>2026-08-04T05:49:55Z</time>
      </trkpt><trkpt lat="55.6417930" lon="8.1242910"><ele>2.0</ele>
        <time>2026-08-04T05:50:05Z</time>
      </trkpt><trkpt lat="55.6416860" lon="8.1242560"><ele>2.0</ele>
        <time>2026-08-04T05:50:10Z</time>
      </trkpt><trkpt lat="55.6415770" lon="8.1242190"><ele>2.0</ele>
        <time>2026-08-04T05:50:15Z</time>
      </trkpt><trkpt lat="55.6414680" lon="8.1241800"><ele>2.0</ele>
        <time>2026-08-04T05:50:20Z</time>
      </trkpt><trkpt lat="55.6412770" lon="8.1240630"><ele>2.0</ele>
        <time>2026-08-04T05:50:29Z</time>
      </trkpt><trkpt lat="55.6410860" lon="8.1239380"><ele>2.0</ele>
        <time>2026-08-04T05:50:38Z</time>
      </trkpt><trkpt lat="55.6409060" lon="8.1237950"><ele>2.0</ele>
        <time>2026-08-04T05:50:50Z</time>
      </trkpt><trkpt lat="55.6407320" lon="8.1236910"><ele>2.0</ele>
        <time>2026-08-04T05:51:03Z</time>
      </trkpt><trkpt lat="55.6405460" lon="8.1235620"><ele>2.0</ele>
        <time>2026-08-04T05:51:17Z</time>
      </trkpt><trkpt lat="55.6403540" lon="8.1234350"><ele>2.0</ele>
        <time>2026-08-04T05:51:27Z</time>
      </trkpt><trkpt lat="55.6401560" lon="8.1233470"><ele>2.0</ele>
        <time>2026-08-04T05:51:56Z</time>
      </trkpt><trkpt lat="55.6400510" lon="8.1232980"><ele>2.0</ele>
        <time>2026-08-04T05:52:01Z</time>
      </trkpt><trkpt lat="55.6399480" lon="8.1232290"><ele>2.0</ele>
        <time>2026-08-04T05:52:06Z</time>
      </trkpt><trkpt lat="55.6398460" lon="8.1231650"><ele>2.0</ele>
        <time>2026-08-04T05:52:11Z</time>
      </trkpt><trkpt lat="55.6397390" lon="8.1231120"><ele>2.0</ele>
        <time>2026-08-04T05:52:16Z</time>
      </trkpt><trkpt lat="55.6396370" lon="8.1230320"><ele>2.0</ele>
        <time>2026-08-04T05:52:21Z</time>
      </trkpt><trkpt lat="55.6394600" lon="8.1229240"><ele>2.0</ele>
        <time>2026-08-04T05:52:29Z</time>
      </trkpt><trkpt lat="55.6392670" lon="8.1228120"><ele>2.0</ele>
        <time>2026-08-04T05:52:39Z</time>
      </trkpt><trkpt lat="55.6390750" lon="8.1226910"><ele>2.0</ele>
        <time>2026-08-04T05:52:52Z</time>
      </trkpt><trkpt lat="55.6388910" lon="8.1225720"><ele>2.0</ele>
        <time>2026-08-04T05:53:06Z</time>
      </trkpt><trkpt lat="55.6386950" lon="8.1224450"><ele>2.1</ele>
        <time>2026-08-04T05:53:19Z</time>
      </trkpt><trkpt lat="55.6384970" lon="8.1223420"><ele>2.1</ele>
        <time>2026-08-04T05:53:28Z</time>
      </trkpt><trkpt lat="55.6383900" lon="8.1222780"><ele>2.1</ele>
        <time>2026-08-04T05:53:33Z</time>
      </trkpt><trkpt lat="55.6382080" lon="8.1221780"><ele>2.1</ele>
        <time>2026-08-04T05:53:46Z</time>
      </trkpt><trkpt lat="55.6380260" lon="8.1220890"><ele>2.1</ele>
        <time>2026-08-04T05:53:58Z</time>
      </trkpt><trkpt lat="55.6378220" lon="8.1219820"><ele>2.2</ele>
        <time>2026-08-04T05:54:07Z</time>
      </trkpt><trkpt lat="55.6376410" lon="8.1219080"><ele>2.2</ele>
        <time>2026-08-04T05:54:15Z</time>
      </trkpt><trkpt lat="55.6374570" lon="8.1218150"><ele>2.2</ele>
        <time>2026-08-04T05:54:23Z</time>
      </trkpt><trkpt lat="55.6373530" lon="8.1217550"><ele>2.2</ele>
        <time>2026-08-04T05:54:28Z</time>
      </trkpt><trkpt lat="55.6371720" lon="8.1216530"><ele>2.2</ele>
        <time>2026-08-04T05:54:41Z</time>
      </trkpt><trkpt lat="55.6369950" lon="8.1215180"><ele>2.2</ele>
        <time>2026-08-04T05:54:54Z</time>
      </trkpt><trkpt lat="55.6368040" lon="8.1214040"><ele>2.2</ele>
        <time>2026-08-04T05:55:19Z</time>
      </trkpt><trkpt lat="55.6366950" lon="8.1213720"><ele>2.2</ele>
        <time>2026-08-04T05:55:24Z</time>
      </trkpt><trkpt lat="55.6364990" lon="8.1212890"><ele>2.2</ele>
        <time>2026-08-04T05:55:33Z</time>
      </trkpt><trkpt lat="55.6363060" lon="8.1211980"><ele>2.2</ele>
        <time>2026-08-04T05:55:45Z</time>
      </trkpt><trkpt lat="55.6361130" lon="8.1210830"><ele>2.2</ele>
        <time>2026-08-04T05:55:56Z</time>
      </trkpt><trkpt lat="55.6359190" lon="8.1209890"><ele>2.2</ele>
        <time>2026-08-04T05:56:05Z</time>
      </trkpt><trkpt lat="55.6357170" lon="8.1209090"><ele>2.2</ele>
        <time>2026-08-04T05:56:15Z</time>
      </trkpt><trkpt lat="55.6355290" lon="8.1208280"><ele>2.2</ele>
        <time>2026-08-04T05:56:36Z</time>
      </trkpt><trkpt lat="55.6353330" lon="8.1207340"><ele>2.3</ele>
        <time>2026-08-04T05:56:46Z</time>
      </trkpt><trkpt lat="55.6351210" lon="8.1206750"><ele>2.3</ele>
        <time>2026-08-04T05:56:56Z</time>
      </trkpt><trkpt lat="55.6350120" lon="8.1206440"><ele>2.3</ele>
        <time>2026-08-04T05:57:01Z</time>
      </trkpt><trkpt lat="55.6349040" lon="8.1206100"><ele>2.3</ele>
        <time>2026-08-04T05:57:06Z</time>
      </trkpt><trkpt lat="55.6347290" lon="8.1205110"><ele>2.3</ele>
        <time>2026-08-04T05:57:15Z</time>
      </trkpt><trkpt lat="55.6345390" lon="8.1203930"><ele>2.3</ele>
        <time>2026-08-04T05:57:29Z</time>
      </trkpt><trkpt lat="55.6343470" lon="8.1202880"><ele>2.3</ele>
        <time>2026-08-04T05:57:43Z</time>
      </trkpt><trkpt lat="55.6341640" lon="8.1201980"><ele>2.3</ele>
        <time>2026-08-04T05:57:56Z</time>
      </trkpt><trkpt lat="55.6339790" lon="8.1200860"><ele>2.2</ele>
        <time>2026-08-04T05:58:06Z</time>
      </trkpt><trkpt lat="55.6338740" lon="8.1200170"><ele>2.2</ele>
        <time>2026-08-04T05:58:10Z</time>
      </trkpt><trkpt lat="55.6337670" lon="8.1199610"><ele>2.2</ele>
        <time>2026-08-04T05:58:15Z</time>
      </trkpt><trkpt lat="55.6335780" lon="8.1198790"><ele>2.2</ele>
        <time>2026-08-04T05:58:24Z</time>
      </trkpt><trkpt lat="55.6333700" lon="8.1197940"><ele>2.2</ele>
        <time>2026-08-04T05:58:34Z</time>
      </trkpt><trkpt lat="55.6331660" lon="8.1197040"><ele>2.1</ele>
        <time>2026-08-04T05:58:44Z</time>
      </trkpt><trkpt lat="55.6330860" lon="8.1196090"><ele>2.1</ele>
        <time>2026-08-04T05:58:48Z</time>
      </trkpt><trkpt lat="55.6329830" lon="8.1195980"><ele>2.1</ele>
        <time>2026-08-04T05:58:52Z</time>
      </trkpt><trkpt lat="55.6328070" lon="8.1194980"><ele>2.1</ele>
        <time>2026-08-04T05:59:04Z</time>
      </trkpt><trkpt lat="55.6326230" lon="8.1193780"><ele>2.1</ele>
        <time>2026-08-04T05:59:18Z</time>
      </trkpt><trkpt lat="55.6325450" lon="8.1192620"><ele>2.1</ele>
        <time>2026-08-04T05:59:31Z</time>
      </trkpt><trkpt lat="55.6324580" lon="8.1192090"><ele>2.1</ele>
        <time>2026-08-04T05:59:38Z</time>
      </trkpt><trkpt lat="55.6322840" lon="8.1190920"><ele>2.1</ele>
        <time>2026-08-04T05:59:51Z</time>
      </trkpt><trkpt lat="55.6320950" lon="8.1189360"><ele>2.1</ele>
        <time>2026-08-04T06:00:03Z</time>
      </trkpt><trkpt lat="55.6319130" lon="8.1188160"><ele>2.2</ele>
        <time>2026-08-04T06:00:12Z</time>
      </trkpt><trkpt lat="55.6317360" lon="8.1186790"><ele>2.2</ele>
        <time>2026-08-04T06:00:21Z</time>
      </trkpt><trkpt lat="55.6315420" lon="8.1185730"><ele>2.2</ele>
        <time>2026-08-04T06:00:32Z</time>
      </trkpt><trkpt lat="55.6313520" lon="8.1184410"><ele>2.3</ele>
        <time>2026-08-04T06:00:42Z</time>
      </trkpt><trkpt lat="55.6312570" lon="8.1183500"><ele>2.3</ele>
        <time>2026-08-04T06:00:47Z</time>
      </trkpt><trkpt lat="55.6310650" lon="8.1181990"><ele>2.3</ele>
        <time>2026-08-04T06:00:57Z</time>
      </trkpt><trkpt lat="55.6309690" lon="8.1181100"><ele>2.4</ele>
        <time>2026-08-04T06:01:02Z</time>
      </trkpt><trkpt lat="55.6307790" lon="8.1180000"><ele>2.4</ele>
        <time>2026-08-04T06:01:12Z</time>
      </trkpt><trkpt lat="55.6305990" lon="8.1178690"><ele>2.3</ele>
        <time>2026-08-04T06:01:26Z</time>
      </trkpt><trkpt lat="55.6304070" lon="8.1177710"><ele>2.3</ele>
        <time>2026-08-04T06:01:40Z</time>
      </trkpt><trkpt lat="55.6302250" lon="8.1176610"><ele>2.3</ele>
        <time>2026-08-04T06:01:53Z</time>
      </trkpt><trkpt lat="55.6300280" lon="8.1175630"><ele>2.3</ele>
        <time>2026-08-04T06:02:02Z</time>
      </trkpt><trkpt lat="55.6298360" lon="8.1174530"><ele>2.3</ele>
        <time>2026-08-04T06:02:11Z</time>
      </trkpt><trkpt lat="55.6296450" lon="8.1173650"><ele>2.3</ele>
        <time>2026-08-04T06:02:20Z</time>
      </trkpt><trkpt lat="55.6294500" lon="8.1172850"><ele>2.3</ele>
        <time>2026-08-04T06:02:30Z</time>
      </trkpt><trkpt lat="55.6292460" lon="8.1171720"><ele>2.3</ele>
        <time>2026-08-04T06:02:40Z</time>
      </trkpt><trkpt lat="55.6290460" lon="8.1171300"><ele>2.4</ele>
        <time>2026-08-04T06:02:50Z</time>
      </trkpt><trkpt lat="55.6288530" lon="8.1172380"><ele>2.7</ele>
        <time>2026-08-04T06:03:01Z</time>
      </trkpt><trkpt lat="55.6286790" lon="8.1173930"><ele>2.9</ele>
        <time>2026-08-04T06:03:15Z</time>
      </trkpt><trkpt lat="55.6286070" lon="8.1175070"><ele>3.0</ele>
        <time>2026-08-04T06:03:24Z</time>
      </trkpt><trkpt lat="55.6284720" lon="8.1177330"><ele>3.2</ele>
        <time>2026-08-04T06:03:38Z</time>
      </trkpt><trkpt lat="55.6283280" lon="8.1179600"><ele>3.4</ele>
        <time>2026-08-04T06:03:52Z</time>
      </trkpt><trkpt lat="55.6281670" lon="8.1181680"><ele>3.6</ele>
        <time>2026-08-04T06:04:06Z</time>
      </trkpt><trkpt lat="55.6280130" lon="8.1183970"><ele>3.8</ele>
        <time>2026-08-04T06:04:20Z</time>
      </trkpt><trkpt lat="55.6278460" lon="8.1185900"><ele>4.1</ele>
        <time>2026-08-04T06:04:32Z</time>
      </trkpt><trkpt lat="55.6276740" lon="8.1187310"><ele>4.3</ele>
        <time>2026-08-04T06:04:40Z</time>
      </trkpt><trkpt lat="55.6274910" lon="8.1188740"><ele>4.7</ele>
        <time>2026-08-04T06:04:49Z</time>
      </trkpt><trkpt lat="55.6273230" lon="8.1190360"><ele>5.1</ele>
        <time>2026-08-04T06:05:05Z</time>
      </trkpt><trkpt lat="55.6272210" lon="8.1192670"><ele>5.5</ele>
        <time>2026-08-04T06:05:24Z</time>
      </trkpt><trkpt lat="55.6272220" lon="8.1194390"><ele>5.7</ele>
        <time>2026-08-04T06:05:32Z</time>
      </trkpt><trkpt lat="55.6272160" lon="8.1198020"><ele>6.1</ele>
        <time>2026-08-04T06:05:46Z</time>
      </trkpt><trkpt lat="55.6272100" lon="8.1201640"><ele>6.5</ele>
        <time>2026-08-04T06:05:59Z</time>
      </trkpt><trkpt lat="55.6271990" lon="8.1205040"><ele>6.9</ele>
        <time>2026-08-04T06:06:10Z</time>
      </trkpt><trkpt lat="55.6271700" lon="8.1208770"><ele>7.4</ele>
        <time>2026-08-04T06:06:19Z</time>
      </trkpt><trkpt lat="55.6271150" lon="8.1212270"><ele>7.8</ele>
        <time>2026-08-04T06:06:28Z</time>
      </trkpt><trkpt lat="55.6270600" lon="8.1215380"><ele>8.0</ele>
        <time>2026-08-04T06:06:36Z</time>
      </trkpt><trkpt lat="55.6270210" lon="8.1218580"><ele>8.0</ele>
        <time>2026-08-04T06:06:47Z</time>
      </trkpt><trkpt lat="55.6269870" lon="8.1221840"><ele>8.0</ele>
        <time>2026-08-04T06:07:00Z</time>
      </trkpt><trkpt lat="55.6269370" lon="8.1225290"><ele>8.0</ele>
        <time>2026-08-04T06:07:14Z</time>
      </trkpt><trkpt lat="55.6268880" lon="8.1228660"><ele>8.0</ele>
        <time>2026-08-04T06:07:28Z</time>
      </trkpt><trkpt lat="55.6268410" lon="8.1230030"><ele>8.0</ele>
        <time>2026-08-04T06:07:34Z</time>
      </trkpt><trkpt lat="55.6267430" lon="8.1232860"><ele>8.0</ele>
        <time>2026-08-04T06:07:46Z</time>
      </trkpt><trkpt lat="55.6266150" lon="8.1235400"><ele>8.1</ele>
        <time>2026-08-04T06:08:08Z</time>
      </trkpt><trkpt lat="55.6265740" lon="8.1237040"><ele>8.1</ele>
        <time>2026-08-04T06:08:16Z</time>
      </trkpt><trkpt lat="55.6264680" lon="8.1240000"><ele>8.1</ele>
        <time>2026-08-04T06:08:42Z</time>
      </trkpt><trkpt lat="55.6265480" lon="8.1237290"><ele>8.1</ele>
        <time>2026-08-04T06:10:59Z</time>
      </trkpt><trkpt lat="55.6264640" lon="8.1238570"><ele>8.1</ele>
        <time>2026-08-04T06:11:04Z</time>
      </trkpt><trkpt lat="55.6263710" lon="8.1239440"><ele>8.1</ele>
        <time>2026-08-04T06:11:08Z</time>
      </trkpt><trkpt lat="55.6263190" lon="8.1240970"><ele>8.1</ele>
        <time>2026-08-04T06:11:12Z</time>
      </trkpt><trkpt lat="55.6262560" lon="8.1242560"><ele>8.1</ele>
        <time>2026-08-04T06:11:17Z</time>
      </trkpt><trkpt lat="55.6261450" lon="8.1245490"><ele>8.1</ele>
        <time>2026-08-04T06:11:25Z</time>
      </trkpt><trkpt lat="55.6260180" lon="8.1248250"><ele>8.1</ele>
        <time>2026-08-04T06:11:34Z</time>
      </trkpt><trkpt lat="55.6259100" lon="8.1250990"><ele>8.1</ele>
        <time>2026-08-04T06:11:42Z</time>
      </trkpt><trkpt lat="55.6258060" lon="8.1253730"><ele>8.1</ele>
        <time>2026-08-04T06:11:50Z</time>
      </trkpt><trkpt lat="55.6257410" lon="8.1255300"><ele>8.1</ele>
        <time>2026-08-04T06:11:55Z</time>
      </trkpt><trkpt lat="55.6256230" lon="8.1257820"><ele>8.1</ele>
        <time>2026-08-04T06:12:03Z</time>
      </trkpt><trkpt lat="55.6255910" lon="8.1259660"><ele>8.1</ele>
        <time>2026-08-04T06:12:08Z</time>
      </trkpt><trkpt lat="55.6256780" lon="8.1260590"><ele>8.1</ele>
        <time>2026-08-04T06:12:13Z</time>
      </trkpt><trkpt lat="55.6257870" lon="8.1263020"><ele>8.0</ele>
        <time>2026-08-04T06:12:27Z</time>
      </trkpt><trkpt lat="55.6257480" lon="8.1264660"><ele>7.9</ele>
        <time>2026-08-04T06:12:42Z</time>
      </trkpt><trkpt lat="55.6256490" lon="8.1267860"><ele>7.8</ele>
        <time>2026-08-04T06:12:56Z</time>
      </trkpt><trkpt lat="55.6256360" lon="8.1269450"><ele>7.7</ele>
        <time>2026-08-04T06:13:02Z</time>
      </trkpt><trkpt lat="55.6256590" lon="8.1272670"><ele>7.6</ele>
        <time>2026-08-04T06:13:14Z</time>
      </trkpt><trkpt lat="55.6257180" lon="8.1275790"><ele>7.4</ele>
        <time>2026-08-04T06:13:26Z</time>
      </trkpt><trkpt lat="55.6257650" lon="8.1277200"><ele>7.4</ele>
        <time>2026-08-04T06:13:32Z</time>
      </trkpt><trkpt lat="55.6258440" lon="8.1280490"><ele>7.2</ele>
        <time>2026-08-04T06:13:46Z</time>
      </trkpt><trkpt lat="55.6259290" lon="8.1283750"><ele>7.0</ele>
        <time>2026-08-04T06:14:00Z</time>
      </trkpt><trkpt lat="55.6259940" lon="8.1285250"><ele>7.0</ele>
        <time>2026-08-04T06:14:07Z</time>
      </trkpt><trkpt lat="55.6261180" lon="8.1287850"><ele>6.8</ele>
        <time>2026-08-04T06:14:20Z</time>
      </trkpt><trkpt lat="55.6262290" lon="8.1290610"><ele>6.7</ele>
        <time>2026-08-04T06:14:33Z</time>
      </trkpt><trkpt lat="55.6263170" lon="8.1294020"><ele>6.6</ele>
        <time>2026-08-04T06:14:47Z</time>
      </trkpt><trkpt lat="55.6263320" lon="8.1295670"><ele>6.6</ele>
        <time>2026-08-04T06:14:53Z</time>
      </trkpt><trkpt lat="55.6263200" lon="8.1297440"><ele>6.6</ele>
        <time>2026-08-04T06:15:01Z</time>
      </trkpt><trkpt lat="55.6262990" lon="8.1300850"><ele>6.5</ele>
        <time>2026-08-04T06:15:15Z</time>
      </trkpt><trkpt lat="55.6263180" lon="8.1302600"><ele>6.5</ele>
        <time>2026-08-04T06:15:22Z</time>
      </trkpt><trkpt lat="55.6263600" lon="8.1304170"><ele>6.4</ele>
        <time>2026-08-04T06:15:29Z</time>
      </trkpt><trkpt lat="55.6264780" lon="8.1307210"><ele>6.4</ele>
        <time>2026-08-04T06:15:44Z</time>
      </trkpt><trkpt lat="55.6265790" lon="8.1307750"><ele>6.4</ele>
        <time>2026-08-04T06:15:53Z</time>
      </trkpt><trkpt lat="55.6267310" lon="8.1309550"><ele>6.3</ele>
        <time>2026-08-04T06:16:06Z</time>
      </trkpt><trkpt lat="55.6267810" lon="8.1310950"><ele>6.3</ele>
        <time>2026-08-04T06:16:13Z</time>
      </trkpt><trkpt lat="55.6268550" lon="8.1313990"><ele>6.2</ele>
        <time>2026-08-04T06:16:28Z</time>
      </trkpt><trkpt lat="55.6268270" lon="8.1315740"><ele>6.2</ele>
        <time>2026-08-04T06:16:36Z</time>
      </trkpt><trkpt lat="55.6267580" lon="8.1319030"><ele>6.2</ele>
        <time>2026-08-04T06:16:50Z</time>
      </trkpt><trkpt lat="55.6266870" lon="8.1320220"><ele>6.2</ele>
        <time>2026-08-04T06:16:57Z</time>
      </trkpt><trkpt lat="55.6266390" lon="8.1321790"><ele>6.2</ele>
        <time>2026-08-04T06:17:04Z</time>
      </trkpt><trkpt lat="55.6266240" lon="8.1323500"><ele>6.2</ele>
        <time>2026-08-04T06:17:11Z</time>
      </trkpt><trkpt lat="55.6265290" lon="8.1326190"><ele>6.2</ele>
        <time>2026-08-04T06:17:27Z</time>
      </trkpt><trkpt lat="55.6264310" lon="8.1325910"><ele>6.2</ele>
        <time>2026-08-04T06:17:35Z</time>
      </trkpt><trkpt lat="55.6262460" lon="8.1325190"><ele>6.2</ele>
        <time>2026-08-04T06:17:54Z</time>
      </trkpt><trkpt lat="55.6260520" lon="8.1324840"><ele>6.2</ele>
        <time>2026-08-04T06:18:10Z</time>
      </trkpt><trkpt lat="55.6259750" lon="8.1325690"><ele>6.2</ele>
        <time>2026-08-04T06:18:19Z</time>
      </trkpt><trkpt lat="55.6259550" lon="8.1327730"><ele>6.2</ele>
        <time>2026-08-04T06:19:05Z</time>
      </trkpt></trkseg>
  </trk>
</gpx>